createdAt,value
2023-05-23T00:01:47.069Z,12.48
2023-05-23T00:07:09.013Z,12.50
2023-05-23T00:12:30.813Z,12.18
2023-05-23T00:17:53.411Z,11.45
2023-05-23T00:23:19.527Z,11.98
2023-05-23T00:28:41.500Z,11.80
2023-05-23T00:34:03.428Z,11.10
2023-05-23T00:39:25.560Z,11.88
2023-05-23T00:44:48.682Z,11.40
2023-05-23T00:50:12.690Z,11.63
2023-05-23T00:55:34.831Z,11.38
2023-05-23T01:00:56.709Z,10.80
2023-05-23T01:06:18.918Z,10.48
2023-05-23T01:11:49.221Z,10.05
2023-05-23T01:17:20.400Z,10.32
2023-05-23T01:23:03.070Z,9.48
2023-05-23T01:28:29.865Z,9.98
2023-05-23T01:33:53.702Z,9.18
2023-05-23T01:39:15.734Z,8.88
2023-05-23T01:44:39.626Z,8.73
2023-05-23T01:50:02.744Z,8.57
2023-05-23T01:55:26.744Z,7.85
2023-05-23T02:00:48.663Z,8.32
2023-05-23T02:06:11.123Z,7.70
2023-05-23T02:11:32.991Z,8.77
2023-05-23T02:16:55.225Z,8.00
2023-05-23T02:22:17.257Z,8.00
2023-05-23T02:27:39.255Z,7.95
2023-05-23T02:33:05.828Z,7.55
2023-05-23T02:38:27.714Z,7.93
2023-05-23T02:43:49.562Z,7.82
2023-05-23T02:49:11.414Z,7.40
2023-05-23T02:54:33.210Z,7.68
2023-05-23T02:59:55.171Z,7.45
2023-05-23T03:05:17.350Z,7.65
2023-05-23T03:10:39.308Z,7.45
2023-05-23T03:16:01.288Z,8.05
2023-05-23T03:21:23.113Z,7.13
2023-05-23T03:26:45.445Z,6.90
2023-05-23T03:32:07.523Z,6.95
2023-05-23T03:37:29.459Z,6.97
2023-05-23T03:43:06.058Z,6.57
2023-05-23T03:48:28.044Z,7.32
2023-05-23T03:53:49.846Z,6.18
2023-05-23T03:59:11.659Z,6.95
2023-05-23T04:04:33.623Z,6.50
2023-05-23T04:09:55.515Z,6.72
2023-05-23T04:15:18.201Z,6.60
2023-05-23T04:20:40.050Z,6.50
2023-05-23T04:26:01.972Z,5.90
2023-05-23T04:31:24.036Z,5.70
2023-05-23T04:36:45.954Z,5.32
2023-05-23T04:42:07.826Z,6.03
2023-05-23T04:47:29.643Z,5.50
2023-05-23T04:52:51.469Z,5.10
2023-05-23T04:58:13.643Z,5.20
2023-05-23T05:03:35.758Z,5.40
2023-05-23T05:08:57.590Z,5.63
2023-05-23T05:14:19.423Z,5.68
2023-05-23T05:19:41.360Z,5.70
2023-05-23T05:25:04.051Z,5.40
2023-05-23T05:30:25.860Z,5.60
2023-05-23T05:35:47.745Z,6.43
2023-05-23T05:41:09.807Z,6.65
2023-05-23T05:46:31.717Z,5.28
2023-05-23T05:51:53.589Z,5.38
2023-05-23T05:57:15.438Z,5.70
2023-05-23T06:02:37.288Z,5.97
2023-05-23T06:07:59.122Z,5.65
2023-05-23T06:13:20.946Z,5.75
2023-05-23T06:18:42.772Z,5.68
2023-05-23T06:24:04.848Z,5.65
2023-05-23T06:29:26.748Z,6.18
2023-05-23T06:34:48.616Z,5.47
2023-05-23T06:40:11.265Z,4.80
2023-05-23T06:45:35.424Z,5.70
2023-05-23T06:50:57.354Z,5.65
2023-05-23T06:56:19.381Z,5.22
2023-05-23T07:01:41.310Z,5.30
2023-05-23T07:07:03.281Z,4.85
2023-05-23T07:12:25.114Z,4.78
2023-05-23T07:17:47.010Z,4.47
2023-05-23T07:23:08.882Z,4.53
2023-05-23T07:28:30.748Z,5.72
2023-05-23T07:33:57.031Z,4.93
2023-05-23T07:39:22.973Z,4.53
2023-05-23T07:44:45.043Z,4.90
2023-05-23T07:50:07.667Z,5.18
2023-05-23T07:55:29.575Z,4.40
2023-05-23T08:00:52.949Z,5.03
2023-05-23T08:06:15.211Z,4.82
2023-05-23T08:11:37.018Z,4.60
2023-05-23T08:16:59.097Z,4.60
2023-05-23T08:22:21.003Z,5.07
2023-05-23T08:27:42.836Z,5.00
2023-05-23T08:33:07.813Z,4.43
2023-05-23T08:38:30.008Z,4.70
2023-05-23T08:43:52.071Z,4.78
2023-05-23T08:49:18.090Z,4.50
2023-05-23T08:54:44.043Z,4.20
2023-05-23T09:00:11.371Z,4.97
2023-05-23T09:05:33.720Z,4.70
2023-05-23T09:10:56.174Z,5.13
2023-05-23T09:16:19.455Z,4.80
2023-05-23T09:21:45.584Z,5.13
2023-05-23T09:27:08.584Z,4.93
2023-05-23T09:32:30.483Z,5.40
2023-05-23T09:37:56.413Z,5.00
2023-05-23T09:43:19.025Z,4.65
2023-05-23T09:48:40.982Z,4.45
2023-05-23T09:54:02.830Z,5.22
2023-05-23T09:59:29.420Z,4.25
2023-05-23T10:04:53.197Z,4.32
2023-05-23T10:10:15.924Z,4.38
2023-05-23T10:15:41.209Z,4.53
2023-05-23T10:21:10.026Z,3.50
2023-05-23T10:26:32.445Z,3.30
2023-05-23T10:31:56.699Z,3.50
2023-05-23T10:37:47.400Z,3.38
2023-05-23T10:43:45.040Z,3.25
2023-05-23T10:49:09.025Z,2.70
2023-05-23T10:54:36.451Z,3.15
2023-05-23T10:59:58.686Z,2.90
2023-05-23T11:05:23.783Z,2.95
2023-05-23T11:11:04.445Z,2.78
2023-05-23T11:16:31.488Z,2.80
2023-05-23T11:22:00.344Z,2.88
2023-05-23T11:27:42.110Z,2.75
2023-05-23T11:33:14.106Z,2.72
2023-05-23T11:38:36.310Z,2.53
2023-05-23T11:44:00.080Z,3.63
2023-05-23T11:49:22.086Z,2.95
2023-05-23T11:54:44.245Z,3.00
2023-05-23T12:00:10.366Z,2.30
2023-05-23T12:05:32.292Z,3.40
2023-05-23T12:10:57.823Z,2.58
2023-05-23T12:21:48.984Z,2.15
2023-05-23T12:27:11.010Z,2.80
2023-05-23T12:32:33.609Z,2.70
2023-05-23T12:37:57.081Z,2.30
2023-05-23T12:43:19.093Z,3.13
2023-05-23T12:48:41.386Z,2.80
2023-05-23T12:54:03.317Z,2.72
2023-05-23T12:59:25.142Z,2.92
2023-05-23T13:04:46.968Z,3.15
2023-05-23T13:10:09.608Z,3.47
2023-05-23T13:15:32.593Z,2.67
2023-05-23T13:20:56.510Z,2.90
2023-05-23T13:26:18.353Z,2.75
2023-05-23T13:31:40.314Z,3.10
2023-05-23T13:37:02.281Z,3.30
2023-05-23T13:42:24.198Z,3.30
2023-05-23T13:47:46.881Z,3.03
2023-05-23T13:53:14.772Z,2.78
2023-05-23T13:58:36.605Z,2.63
2023-05-23T14:03:58.473Z,3.00
2023-05-23T14:09:22.308Z,2.97
2023-05-23T14:14:45.077Z,3.43
2023-05-23T14:20:08.048Z,4.18
2023-05-23T14:25:30.846Z,3.70
2023-05-23T14:30:52.642Z,3.35
2023-05-23T14:36:14.509Z,3.65
2023-05-23T14:41:36.828Z,2.88
2023-05-23T14:46:58.853Z,2.88
2023-05-23T14:52:20.704Z,3.63
2023-05-23T14:57:43.401Z,3.28
2023-05-23T15:03:05.386Z,3.10
2023-05-23T15:08:27.278Z,2.95
2023-05-23T15:13:49.086Z,3.35
2023-05-23T15:19:11.317Z,3.90
2023-05-23T15:24:35.004Z,3.10
2023-05-23T15:29:57.059Z,2.90
2023-05-23T15:35:19.885Z,2.90
2023-05-23T15:40:42.057Z,2.55
2023-05-23T15:46:05.207Z,3.35
2023-05-23T15:51:27.154Z,3.25
2023-05-23T15:56:49.288Z,2.75
2023-05-23T16:02:11.231Z,3.20
2023-05-23T16:07:33.124Z,2.75
2023-05-23T16:12:54.955Z,3.47
2023-05-23T16:18:16.809Z,3.65
2023-05-23T16:23:38.644Z,2.72
2023-05-23T16:29:00.484Z,3.45
2023-05-23T16:34:22.304Z,3.13
2023-05-23T16:39:44.159Z,3.08
2023-05-23T16:45:06.849Z,3.53
2023-05-23T16:50:28.712Z,3.10
2023-05-23T16:55:50.894Z,3.05
2023-05-23T17:01:13.564Z,2.88
2023-05-23T17:06:35.474Z,3.40
2023-05-23T17:11:57.391Z,2.20
2023-05-23T17:17:19.358Z,3.33
2023-05-23T17:22:42.056Z,3.13
2023-05-23T17:28:03.936Z,2.85
2023-05-23T17:33:25.890Z,3.00
2023-05-23T17:38:47.762Z,3.17
2023-05-23T17:44:09.680Z,2.85
2023-05-23T17:49:31.598Z,2.75
2023-05-23T17:54:53.475Z,3.33
2023-05-23T18:00:16.501Z,2.88
2023-05-23T18:05:38.402Z,3.17
2023-05-23T18:11:00.358Z,3.50
2023-05-23T18:16:22.451Z,2.80
2023-05-23T18:21:44.452Z,2.92
2023-05-23T18:27:06.522Z,2.60
2023-05-23T18:32:28.370Z,3.10
2023-05-23T18:37:50.311Z,3.00
2023-05-23T18:43:13.685Z,3.10
2023-05-23T18:48:36.138Z,2.47
2023-05-23T18:53:58.496Z,2.75
2023-05-23T18:59:20.350Z,2.13
2023-05-23T19:04:42.257Z,3.08
2023-05-23T19:10:04.373Z,2.60
2023-05-23T19:15:26.286Z,2.85
2023-05-23T19:20:48.407Z,2.53
2023-05-23T19:26:10.588Z,2.55
2023-05-23T19:31:32.706Z,1.95
2023-05-23T19:36:54.725Z,2.47
2023-05-23T19:42:16.952Z,2.65
2023-05-23T19:47:38.914Z,2.53
2023-05-23T19:53:00.874Z,3.35
2023-05-23T19:58:22.750Z,2.97
2023-05-23T20:03:44.721Z,2.88
2023-05-23T20:09:06.629Z,2.05
2023-05-23T20:14:30.988Z,2.08
2023-05-23T20:19:52.960Z,2.42
2023-05-23T20:25:14.893Z,2.53
2023-05-23T20:30:37.021Z,2.72
2023-05-23T20:35:59.465Z,2.00
2023-05-23T20:41:21.770Z,2.58
2023-05-23T20:46:46.137Z,2.72
2023-05-23T20:52:08.384Z,3.53
2023-05-23T20:57:30.430Z,2.67
2023-05-23T21:02:52.310Z,2.70
2023-05-23T21:08:14.282Z,2.75
2023-05-23T21:13:39.001Z,2.30
2023-05-23T21:19:01.711Z,2.50
2023-05-23T21:24:24.524Z,2.15
2023-05-23T21:29:47.717Z,2.13
2023-05-23T21:35:09.803Z,2.33
2023-05-23T21:40:31.960Z,2.60
2023-05-23T21:45:53.780Z,2.30
2023-05-23T21:51:15.807Z,2.45
2023-05-23T21:56:37.692Z,2.35
2023-05-23T22:01:59.916Z,2.42
2023-05-23T22:07:25.526Z,2.40
2023-05-23T22:12:47.370Z,2.40
2023-05-23T22:18:09.260Z,2.40
2023-05-23T22:23:32.035Z,2.00
2023-05-23T22:28:54.589Z,2.13
2023-05-23T22:34:16.862Z,2.25
2023-05-23T22:39:38.710Z,2.50
2023-05-23T22:45:00.904Z,2.15
2023-05-23T22:50:23.116Z,1.95
2023-05-23T22:55:44.909Z,1.60
2023-05-23T23:01:06.806Z,1.67
2023-05-23T23:06:29.587Z,2.00
2023-05-23T23:11:51.411Z,2.10
2023-05-23T23:17:13.855Z,1.55
2023-05-23T23:22:36.653Z,1.58
2023-05-23T23:27:58.463Z,1.92
2023-05-23T23:33:20.293Z,1.88
2023-05-23T23:38:42.143Z,1.63
2023-05-23T23:44:04.137Z,1.67
2023-05-23T23:49:25.962Z,1.65
2023-05-23T23:54:47.746Z,1.65
